Calhoun, Kentucky
Current Conditions -  °F | °C
As of 4:30 AM on Friday 24 Oct 2014 (Local Time) from KOWB Reporting Station
Haze Haze  
Wind Chill: 41°   Ceiling: Unl
Heat Index: 41°   Visibility: 1mi
Dew Point: 39°   Wind: 3mph
Humidity: 93%   Direction: 280°W
Pressure: 30.13"   Gusts: NA
Location:  37.54°N, 87.26°W
Report Text: KOWB 240930Z AUTO 28003KT 1SM BR CLR 05/04 A3013 RMK AO2 TSNO
Loading
Personal Weather Stations






























Interactive Weather Map
Tropical Storm Tracking
New forecast layout! Learn more

10-Day Weather Forecast

Advertisements
Track Severe Weather on mobile